»·PEaware :: SWA3567 KSMF-KSAN

SWA3567 :: KSMF-KSAN

FLIGHT INFORMATION

Flight Status: Arrived
Operator:
Southwest Airlines
More flights by this operator :: More flights under this callsign
Pilot: Aundrey S. (17120)
Aircraft: BOEING 737-800
(B738)
More flights by this aircraft type
Origin: KSMF Sacramento Intl
United States
Destination: KSAN San Diego Intl-Lindbergh
United States
More flights between these airports :: More routes between these airports
Route: +FTHIL2 FRA EHF HUULK COMIX1
File this flight plan on PilotEdge
Remarks:
Altitude:
(Current/Filed)
35,000ft
Speed:
(Current/Filed)
450kts
Departed: 10-May-18 03:24 PM
Arrived: 10-May-18 04:38 PM
Distance/Time
Traveled:
417nm/1:14
Distance/Time
To Go:
Arrived

Flight Plot

Page will automatically refresh every two minutes.

Flight plan parsing failed; only flown route is shown


Map Options




Map Legend


Flown Route
Filed Route
Departure Airport
Arrival Airport
Navaid (VOR, NDB)
Fix

Horizontal Profiles

Position Reports

Time Latitude Longitude Heading Altitude Ground
Speed
10-May-18 14:51 38.696354 -121.595162 155 27ft 0kts
10-May-18 14:52 38.696354 -121.595162 155 27ft 0kts
10-May-18 14:53 38.696354 -121.595162 155 27ft 0kts
10-May-18 14:54 38.696354 -121.595162 155 27ft 0kts
10-May-18 14:55 38.696354 -121.595162 155 27ft 0kts
10-May-18 14:56 38.696354 -121.595162 155 27ft 0kts
10-May-18 14:57 38.696354 -121.595162 155 27ft 0kts
10-May-18 14:58 38.696354 -121.595162 155 27ft 0kts
10-May-18 14:59 38.696354 -121.595162 155 27ft 0kts
10-May-18 15:00 38.696354 -121.595162 155 27ft 0kts
10-May-18 15:01 38.696354 -121.595162 155 27ft 0kts
10-May-18 15:02 38.696354 -121.595162 155 27ft 0kts
10-May-18 15:03 38.696354 -121.595162 155 27ft 0kts
10-May-18 15:04 38.696354 -121.595162 155 27ft 0kts
10-May-18 15:05 38.696354 -121.595162 155 27ft 0kts
10-May-18 15:06 38.696354 -121.595162 155 27ft 0kts
10-May-18 15:07 38.696354 -121.595162 155 27ft 0kts
10-May-18 15:08 38.696354 -121.595162 155 27ft 0kts
10-May-18 15:09 38.696354 -121.595162 155 27ft 0kts
10-May-18 15:10 38.696354 -121.595162 155 27ft 0kts
10-May-18 15:11 38.696862 -121.595406 184 27ft 0kts
10-May-18 15:12 38.696862 -121.595406 184 27ft 0kts
10-May-18 15:13 38.696862 -121.595406 184 27ft 0kts
10-May-18 15:14 38.696862 -121.595406 184 27ft 0kts
10-May-18 15:15 38.696862 -121.595406 184 27ft 0kts
10-May-18 15:16 38.696862 -121.595406 184 27ft 0kts
10-May-18 15:17 38.696862 -121.595406 184 27ft 0kts
10-May-18 15:18 38.696855 -121.595407 185 27ft 1kts
10-May-18 15:19 38.697019 -121.597798 270 27ft 15kts
10-May-18 15:20 38.702603 -121.598536 0 27ft 26kts
10-May-18 15:21 38.707191 -121.599510 271 27ft 4kts
10-May-18 15:22 38.707195 -121.599702 271 27ft 0kts
10-May-18 15:23 38.706756 -121.601043 196 27ft 9kts
10-May-18 15:24 38.673124 -121.601903 171 714ft 211kts
10-May-18 15:25 38.631758 -121.543774 123 3254ft 264kts
10-May-18 15:26 38.591798 -121.464145 123 6866ft 279kts
10-May-18 15:27 38.548820 -121.378682 125 10065ft 303kts
10-May-18 15:28 38.499633 -121.281461 122 11668ft 351kts
10-May-18 15:29 38.445414 -121.174290 123 13479ft 366kts
10-May-18 15:30 38.389624 -121.064379 123 15275ft 377kts
10-May-18 15:31 38.331590 -120.950478 123 17089ft 389kts
10-May-18 15:32 38.271889 -120.833756 124 18900ft 401kts
10-May-18 15:33 38.210135 -120.713489 124 20721ft 412kts
10-May-18 15:34 38.146608 -120.590221 123 22544ft 426kts
10-May-18 15:35 38.080784 -120.462929 123 24383ft 438kts
10-May-18 15:36 38.012186 -120.336765 126 26186ft 451kts
10-May-18 15:37 37.934631 -120.210741 145 27875ft 457kts
10-May-18 15:38 37.827591 -120.129340 153 29371ft 464kts
10-May-18 15:39 37.715214 -120.046520 152 30745ft 476kts
10-May-18 15:40 37.600666 -119.962031 150 32015ft 481kts
10-May-18 15:41 37.485464 -119.877019 149 33292ft 480kts
10-May-18 15:42 37.370952 -119.792439 148 34449ft 478kts
10-May-18 15:43 37.256427 -119.707826 148 34932ft 490kts
10-May-18 15:44 37.137423 -119.619866 148 34918ft 499kts
10-May-18 15:45 37.006970 -119.565200 167 34921ft 499kts
10-May-18 15:46 36.874913 -119.524743 166 34910ft 499kts
10-May-18 15:47 36.740470 -119.483445 166 34912ft 499kts
10-May-18 15:48 36.605833 -119.442075 166 34913ft 499kts
10-May-18 15:49 36.471606 -119.400825 166 34915ft 499kts
10-May-18 15:50 36.337586 -119.359639 166 34917ft 499kts
10-May-18 15:51 36.204336 -119.318632 166 34915ft 499kts
10-May-18 15:52 36.070035 -119.277346 166 34916ft 499kts
10-May-18 15:53 35.938614 -119.236925 169 34916ft 483kts
10-May-18 15:54 35.811498 -119.197850 169 34909ft 484kts
10-May-18 15:55 35.681531 -119.157880 169 34911ft 483kts
10-May-18 15:56 35.551613 -119.117917 169 34912ft 483kts
10-May-18 15:57 35.425416 -119.064829 157 34911ft 487kts
10-May-18 15:58 35.302517 -118.996546 158 34914ft 486kts
10-May-18 15:59 35.179994 -118.928867 158 34937ft 484kts
10-May-18 16:00 35.059745 -118.862422 158 35024ft 484kts
10-May-18 16:01 34.937857 -118.795044 158 35032ft 477kts
10-May-18 16:02 34.821115 -118.730512 158 35021ft 483kts
10-May-18 16:03 34.699530 -118.663260 158 35022ft 481kts
10-May-18 16:04 34.578207 -118.594967 152 35013ft 482kts
10-May-18 16:05 34.462907 -118.512488 152 35025ft 483kts
10-May-18 16:06 34.348671 -118.431737 152 34932ft 463kts
10-May-18 16:07 34.237543 -118.353186 151 33640ft 468kts
10-May-18 16:08 34.130443 -118.277376 152 31732ft 465kts
10-May-18 16:09 34.020099 -118.199278 152 29773ft 463kts
10-May-18 16:10 33.909989 -118.121311 152 27809ft 462kts
10-May-18 16:11 33.802229 -118.046885 154 25863ft 454kts
10-May-18 16:12 33.693846 -117.975493 154 23854ft 438kts
10-May-18 16:13 33.589184 -117.906303 154 21848ft 424kts
10-May-18 16:14 33.488527 -117.838593 153 19963ft 411kts
10-May-18 16:15 33.399629 -117.756774 135 18278ft 407kts
10-May-18 16:16 33.321919 -117.661182 136 16581ft 396kts
10-May-18 16:17 33.244052 -117.572139 148 14886ft 376kts
10-May-18 16:18 33.163273 -117.505579 147 13155ft 342kts
10-May-18 16:19 33.085781 -117.440801 147 11944ft 340kts
10-May-18 16:20 33.011146 -117.378328 146 10119ft 309kts
10-May-18 16:21 32.943964 -117.322019 147 8350ft 295kts
10-May-18 16:22 32.881591 -117.269986 147 7935ft 272kts
10-May-18 16:23 32.821533 -117.219604 138 7050ft 258kts
10-May-18 16:24 32.795904 -117.140550 106 6622ft 262kts
10-May-18 16:25 32.777249 -117.059096 106 5460ft 243kts
10-May-18 16:26 32.759965 -116.984037 105 4936ft 231kts
10-May-18 16:27 32.742103 -116.910340 106 4978ft 230kts
10-May-18 16:28 32.727069 -116.848750 105 4975ft 232kts
10-May-18 16:29 32.706008 -116.776059 132 4959ft 238kts
10-May-18 16:30 32.652571 -116.775436 227 4962ft 215kts
10-May-18 16:31 32.647383 -116.841279 288 4947ft 220kts
10-May-18 16:32 32.665044 -116.909556 285 4987ft 216kts
10-May-18 16:33 32.681440 -116.975812 285 4773ft 194kts
10-May-18 16:34 32.696548 -117.037544 285 2784ft 196kts
10-May-18 16:35 32.710373 -117.094238 284 1937ft 142kts
10-May-18 16:36 32.721880 -117.140380 284 1319ft 146kts
10-May-18 16:37 32.732341 -117.184539 284 19ft 124kts
10-May-18 16:38 32.733949 -117.194849 161 21ft 0kts
10-May-18 16:39 32.733949 -117.194849 161 21ft 0kts
10-May-18 16:40 32.732718 -117.194502 205 21ft 8kts
10-May-18 16:41 32.732479 -117.195372 309 20ft 1kts
10-May-18 16:42 32.732556 -117.195477 312 20ft 0kts

Navigation Log

Ident Type
Flight plan parsing failed, navigation log unavailable